sensor_id;sensor_type;location;lat;lon;timestamp;P1;durP1;ratioP1;P2;durP2;ratioP2
7747;SDS011;3918;42.564;23.164;2023-02-11T00:01:39;7.87;;;4.60;;
7747;SDS011;3918;42.564;23.164;2023-02-11T00:04:06;11.23;;;4.30;;
7747;SDS011;3918;42.564;23.164;2023-02-11T00:06:33;9.40;;;4.67;;
7747;SDS011;3918;42.564;23.164;2023-02-11T00:09:02;4.93;;;3.53;;
7747;SDS011;3918;42.564;23.164;2023-02-11T00:11:30;12.37;;;4.37;;
7747;SDS011;3918;42.564;23.164;2023-02-11T00:13:57;7.80;;;3.50;;
7747;SDS011;3918;42.564;23.164;2023-02-11T00:16:25;8.13;;;3.83;;
7747;SDS011;3918;42.564;23.164;2023-02-11T00:18:51;7.73;;;4.43;;
7747;SDS011;3918;42.564;23.164;2023-02-11T00:21:19;8.03;;;3.97;;
7747;SDS011;3918;42.564;23.164;2023-02-11T00:23:47;9.73;;;4.03;;
7747;SDS011;3918;42.564;23.164;2023-02-11T00:26:16;10.63;;;3.97;;
7747;SDS011;3918;42.564;23.164;2023-02-11T00:28:44;7.27;;;3.80;;
7747;SDS011;3918;42.564;23.164;2023-02-11T00:31:12;12.00;;;3.17;;
7747;SDS011;3918;42.564;23.164;2023-02-11T00:33:40;49.20;;;16.37;;
7747;SDS011;3918;42.564;23.164;2023-02-11T00:36:08;10.13;;;4.37;;
7747;SDS011;3918;42.564;23.164;2023-02-11T00:38:38;12.50;;;5.40;;
7747;SDS011;3918;42.564;23.164;2023-02-11T00:41:05;8.87;;;3.73;;
7747;SDS011;3918;42.564;23.164;2023-02-11T00:43:33;2.10;;;1.67;;
7747;SDS011;3918;42.564;23.164;2023-02-11T00:46:00;7.50;;;3.40;;
7747;SDS011;3918;42.564;23.164;2023-02-11T00:48:27;9.40;;;3.23;;
7747;SDS011;3918;42.564;23.164;2023-02-11T00:50:54;10.20;;;4.00;;
7747;SDS011;3918;42.564;23.164;2023-02-11T00:53:21;6.00;;;2.23;;
7747;SDS011;3918;42.564;23.164;2023-02-11T00:55:48;12.20;;;4.47;;
7747;SDS011;3918;42.564;23.164;2023-02-11T00:58:14;11.33;;;4.40;;
7747;SDS011;3918;42.564;23.164;2023-02-11T01:00:42;4.53;;;3.03;;
7747;SDS011;3918;42.564;23.164;2023-02-11T01:03:09;12.87;;;4.70;;
7747;SDS011;3918;42.564;23.164;2023-02-11T01:05:36;8.47;;;4.33;;
7747;SDS011;3918;42.564;23.164;2023-02-11T01:08:03;10.53;;;3.93;;
7747;SDS011;3918;42.564;23.164;2023-02-11T01:10:31;11.43;;;4.53;;
7747;SDS011;3918;42.564;23.164;2023-02-11T01:12:58;14.53;;;5.57;;
7747;SDS011;3918;42.564;23.164;2023-02-11T01:15:25;14.87;;;5.33;;
7747;SDS011;3918;42.564;23.164;2023-02-11T01:17:54;6.70;;;4.37;;
7747;SDS011;3918;42.564;23.164;2023-02-11T01:20:21;1.87;;;1.50;;
7747;SDS011;3918;42.564;23.164;2023-02-11T01:22:50;5.10;;;2.53;;
7747;SDS011;3918;42.564;23.164;2023-02-11T01:25:17;5.77;;;3.43;;
7747;SDS011;3918;42.564;23.164;2023-02-11T01:27:43;8.93;;;3.70;;
7747;SDS011;3918;42.564;23.164;2023-02-11T01:30:11;4.40;;;2.80;;
7747;SDS011;3918;42.564;23.164;2023-02-11T01:32:39;11.20;;;5.03;;
7747;SDS011;3918;42.564;23.164;2023-02-11T01:35:07;13.17;;;5.30;;
7747;SDS011;3918;42.564;23.164;2023-02-11T01:37:34;13.80;;;4.60;;
7747;SDS011;3918;42.564;23.164;2023-02-11T01:40:02;11.83;;;4.53;;
7747;SDS011;3918;42.564;23.164;2023-02-11T01:42:31;8.83;;;3.67;;
7747;SDS011;3918;42.564;23.164;2023-02-11T01:44:58;6.27;;;2.40;;
7747;SDS011;3918;42.564;23.164;2023-02-11T01:47:26;13.40;;;4.77;;
7747;SDS011;3918;42.564;23.164;2023-02-11T01:49:54;13.27;;;4.50;;
7747;SDS011;3918;42.564;23.164;2023-02-11T01:52:26;12.97;;;4.10;;
7747;SDS011;3918;42.564;23.164;2023-02-11T01:54:58;11.60;;;4.33;;
7747;SDS011;3918;42.564;23.164;2023-02-11T01:57:46;6.33;;;2.87;;
7747;SDS011;3918;42.564;23.164;2023-02-11T02:00:17;2.20;;;1.93;;
7747;SDS011;3918;42.564;23.164;2023-02-11T02:02:49;2.83;;;1.60;;
7747;SDS011;3918;42.564;23.164;2023-02-11T02:05:25;5.13;;;2.17;;
7747;SDS011;3918;42.564;23.164;2023-02-11T02:08:02;5.13;;;2.43;;
7747;SDS011;3918;42.564;23.164;2023-02-11T02:10:36;2.47;;;2.20;;
7747;SDS011;3918;42.564;23.164;2023-02-11T02:13:07;10.53;;;2.37;;
7747;SDS011;3918;42.564;23.164;2023-02-11T02:15:34;5.20;;;2.73;;
7747;SDS011;3918;42.564;23.164;2023-02-11T02:18:15;4.27;;;2.53;;
7747;SDS011;3918;42.564;23.164;2023-02-11T02:21:07;5.63;;;2.70;;
7747;SDS011;3918;42.564;23.164;2023-02-11T02:27:14;15.23;;;6.27;;
7747;SDS011;3918;42.564;23.164;2023-02-11T02:29:54;5.67;;;2.87;;
7747;SDS011;3918;42.564;23.164;2023-02-11T02:32:40;4.97;;;1.90;;
7747;SDS011;3918;42.564;23.164;2023-02-11T02:35:18;6.17;;;2.70;;
7747;SDS011;3918;42.564;23.164;2023-02-11T02:37:55;5.87;;;2.53;;
7747;SDS011;3918;42.564;23.164;2023-02-11T02:40:27;5.27;;;2.30;;
7747;SDS011;3918;42.564;23.164;2023-02-11T02:42:57;24.43;;;7.93;;
7747;SDS011;3918;42.564;23.164;2023-02-11T02:45:26;13.10;;;4.53;;
7747;SDS011;3918;42.564;23.164;2023-02-11T02:47:55;14.90;;;4.20;;
7747;SDS011;3918;42.564;23.164;2023-02-11T02:50:25;1.83;;;1.67;;
7747;SDS011;3918;42.564;23.164;2023-02-11T02:52:58;7.27;;;2.87;;
7747;SDS011;3918;42.564;23.164;2023-02-11T02:55:42;3.73;;;2.63;;
7747;SDS011;3918;42.564;23.164;2023-02-11T02:58:25;5.00;;;2.17;;
7747;SDS011;3918;42.564;23.164;2023-02-11T03:01:11;3.00;;;1.90;;
7747;SDS011;3918;42.564;23.164;2023-02-11T03:03:53;7.50;;;2.93;;
7747;SDS011;3918;42.564;23.164;2023-02-11T03:06:27;4.77;;;2.73;;
7747;SDS011;3918;42.564;23.164;2023-02-11T03:09:00;3.90;;;1.37;;
7747;SDS011;3918;42.564;23.164;2023-02-11T03:11:31;5.13;;;2.23;;
7747;SDS011;3918;42.564;23.164;2023-02-11T03:14:01;4.27;;;1.90;;
7747;SDS011;3918;42.564;23.164;2023-02-11T03:16:29;6.50;;;1.93;;
7747;SDS011;3918;42.564;23.164;2023-02-11T03:19:05;4.80;;;2.67;;
7747;SDS011;3918;42.564;23.164;2023-02-11T03:21:36;4.20;;;2.20;;
7747;SDS011;3918;42.564;23.164;2023-02-11T03:24:06;2.40;;;1.67;;
7747;SDS011;3918;42.564;23.164;2023-02-11T03:26:38;7.80;;;1.97;;
7747;SDS011;3918;42.564;23.164;2023-02-11T03:29:09;4.17;;;2.00;;
7747;SDS011;3918;42.564;23.164;2023-02-11T03:31:46;4.40;;;2.30;;
7747;SDS011;3918;42.564;23.164;2023-02-11T03:34:24;5.73;;;2.37;;
7747;SDS011;3918;42.564;23.164;2023-02-11T03:36:55;3.53;;;2.83;;
7747;SDS011;3918;42.564;23.164;2023-02-11T03:39:29;7.63;;;2.60;;
7747;SDS011;3918;42.564;23.164;2023-02-11T03:41:59;7.33;;;3.40;;
7747;SDS011;3918;42.564;23.164;2023-02-11T03:44:30;6.57;;;2.37;;
7747;SDS011;3918;42.564;23.164;2023-02-11T03:47:01;6.73;;;2.93;;
7747;SDS011;3918;42.564;23.164;2023-02-11T03:49:32;4.47;;;2.87;;
7747;SDS011;3918;42.564;23.164;2023-02-11T03:52:01;5.00;;;3.27;;
7747;SDS011;3918;42.564;23.164;2023-02-11T03:54:30;12.13;;;3.77;;
7747;SDS011;3918;42.564;23.164;2023-02-11T03:56:58;7.00;;;2.97;;
7747;SDS011;3918;42.564;23.164;2023-02-11T03:59:26;12.23;;;4.57;;
7747;SDS011;3918;42.564;23.164;2023-02-11T04:01:54;9.50;;;4.50;;
7747;SDS011;3918;42.564;23.164;2023-02-11T04:04:21;12.60;;;3.33;;
7747;SDS011;3918;42.564;23.164;2023-02-11T04:06:50;9.53;;;4.57;;
7747;SDS011;3918;42.564;23.164;2023-02-11T04:09:16;9.27;;;3.53;;
7747;SDS011;3918;42.564;23.164;2023-02-11T04:11:43;7.80;;;2.70;;
7747;SDS011;3918;42.564;23.164;2023-02-11T04:14:10;8.83;;;2.47;;
7747;SDS011;3918;42.564;23.164;2023-02-11T04:16:36;3.80;;;2.40;;
7747;SDS011;3918;42.564;23.164;2023-02-11T04:19:03;5.93;;;3.07;;
7747;SDS011;3918;42.564;23.164;2023-02-11T04:21:30;5.10;;;2.13;;
7747;SDS011;3918;42.564;23.164;2023-02-11T04:23:58;4.63;;;2.50;;
7747;SDS011;3918;42.564;23.164;2023-02-11T04:26:25;7.30;;;2.80;;
7747;SDS011;3918;42.564;23.164;2023-02-11T04:28:52;5.40;;;2.27;;
7747;SDS011;3918;42.564;23.164;2023-02-11T04:31:18;24.50;;;9.47;;
7747;SDS011;3918;42.564;23.164;2023-02-11T04:33:45;17.23;;;7.00;;
7747;SDS011;3918;42.564;23.164;2023-02-11T04:36:12;15.93;;;4.70;;
7747;SDS011;3918;42.564;23.164;2023-02-11T04:38:39;8.73;;;3.33;;
7747;SDS011;3918;42.564;23.164;2023-02-11T04:41:07;6.27;;;2.90;;
7747;SDS011;3918;42.564;23.164;2023-02-11T04:43:34;6.20;;;2.43;;
7747;SDS011;3918;42.564;23.164;2023-02-11T04:46:00;6.17;;;2.77;;
7747;SDS011;3918;42.564;23.164;2023-02-11T04:48:27;6.27;;;2.70;;
7747;SDS011;3918;42.564;23.164;2023-02-11T04:50:54;7.50;;;2.67;;
7747;SDS011;3918;42.564;23.164;2023-02-11T04:53:21;8.50;;;3.00;;
7747;SDS011;3918;42.564;23.164;2023-02-11T04:55:48;9.53;;;2.87;;
7747;SDS011;3918;42.564;23.164;2023-02-11T04:58:16;6.57;;;2.53;;
7747;SDS011;3918;42.564;23.164;2023-02-11T05:00:43;4.20;;;1.70;;
7747;SDS011;3918;42.564;23.164;2023-02-11T05:03:10;13.03;;;3.33;;
7747;SDS011;3918;42.564;23.164;2023-02-11T05:05:37;8.47;;;3.57;;
7747;SDS011;3918;42.564;23.164;2023-02-11T05:08:05;9.27;;;3.60;;
7747;SDS011;3918;42.564;23.164;2023-02-11T05:10:32;13.33;;;4.50;;
7747;SDS011;3918;42.564;23.164;2023-02-11T05:12:59;20.77;;;4.70;;
7747;SDS011;3918;42.564;23.164;2023-02-11T05:15:27;11.13;;;4.90;;
7747;SDS011;3918;42.564;23.164;2023-02-11T05:17:54;11.70;;;4.57;;
7747;SDS011;3918;42.564;23.164;2023-02-11T05:20:21;2.70;;;1.87;;
7747;SDS011;3918;42.564;23.164;2023-02-11T05:22:48;6.53;;;3.33;;
7747;SDS011;3918;42.564;23.164;2023-02-11T05:25:15;3.50;;;2.53;;
7747;SDS011;3918;42.564;23.164;2023-02-11T05:27:42;4.43;;;2.40;;
7747;SDS011;3918;42.564;23.164;2023-02-11T05:30:09;6.80;;;2.20;;
7747;SDS011;3918;42.564;23.164;2023-02-11T05:32:38;8.10;;;3.07;;
7747;SDS011;3918;42.564;23.164;2023-02-11T05:35:05;6.80;;;3.67;;
7747;SDS011;3918;42.564;23.164;2023-02-11T05:37:32;15.53;;;4.77;;
7747;SDS011;3918;42.564;23.164;2023-02-11T05:39:59;4.47;;;3.17;;
7747;SDS011;3918;42.564;23.164;2023-02-11T05:42:26;5.53;;;2.73;;
7747;SDS011;3918;42.564;23.164;2023-02-11T05:44:53;6.77;;;3.10;;
7747;SDS011;3918;42.564;23.164;2023-02-11T05:47:19;7.47;;;2.80;;
7747;SDS011;3918;42.564;23.164;2023-02-11T05:49:48;7.47;;;3.50;;
7747;SDS011;3918;42.564;23.164;2023-02-11T05:52:14;7.40;;;2.90;;
7747;SDS011;3918;42.564;23.164;2023-02-11T05:54:41;6.50;;;3.37;;
7747;SDS011;3918;42.564;23.164;2023-02-11T05:57:08;6.27;;;3.77;;
7747;SDS011;3918;42.564;23.164;2023-02-11T05:59:34;7.77;;;3.17;;
7747;SDS011;3918;42.564;23.164;2023-02-11T06:02:01;10.00;;;3.53;;
7747;SDS011;3918;42.564;23.164;2023-02-11T06:04:28;3.87;;;2.43;;
7747;SDS011;3918;42.564;23.164;2023-02-11T06:06:56;2.07;;;1.87;;
7747;SDS011;3918;42.564;23.164;2023-02-11T06:09:23;8.20;;;3.27;;
7747;SDS011;3918;42.564;23.164;2023-02-11T06:11:50;7.57;;;3.37;;
7747;SDS011;3918;42.564;23.164;2023-02-11T06:14:17;9.80;;;3.97;;
7747;SDS011;3918;42.564;23.164;2023-02-11T06:16:44;7.67;;;4.03;;
7747;SDS011;3918;42.564;23.164;2023-02-11T06:19:10;9.37;;;4.70;;
7747;SDS011;3918;42.564;23.164;2023-02-11T06:21:37;10.85;;;4.45;;
7747;SDS011;3918;42.564;23.164;2023-02-11T06:24:06;8.00;;;4.60;;
7747;SDS011;3918;42.564;23.164;2023-02-11T06:26:33;9.10;;;5.90;;
7747;SDS011;3918;42.564;23.164;2023-02-11T06:29:00;9.45;;;5.55;;
7747;SDS011;3918;42.564;23.164;2023-02-11T06:31:27;165.43;;;48.95;;
7747;SDS011;3918;42.564;23.164;2023-02-11T06:33:54;73.78;;;25.42;;
7747;SDS011;3918;42.564;23.164;2023-02-11T06:36:21;12.88;;;7.20;;
7747;SDS011;3918;42.564;23.164;2023-02-11T06:38:48;3.22;;;2.78;;
7747;SDS011;3918;42.564;23.164;2023-02-11T06:41:17;5.00;;;3.67;;
7747;SDS011;3918;42.564;23.164;2023-02-11T06:43:45;5.10;;;3.55;;
7747;SDS011;3918;42.564;23.164;2023-02-11T06:46:12;6.65;;;3.75;;
7747;SDS011;3918;42.564;23.164;2023-02-11T06:48:39;8.27;;;5.68;;
7747;SDS011;3918;42.564;23.164;2023-02-11T06:51:07;5.82;;;4.15;;
7747;SDS011;3918;42.564;23.164;2023-02-11T06:53:35;5.95;;;4.32;;
7747;SDS011;3918;42.564;23.164;2023-02-11T06:56:03;9.30;;;5.63;;
7747;SDS011;3918;42.564;23.164;2023-02-11T06:58:32;9.52;;;6.30;;
7747;SDS011;3918;42.564;23.164;2023-02-11T07:01:02;10.30;;;6.70;;
7747;SDS011;3918;42.564;23.164;2023-02-11T07:03:30;8.77;;;6.22;;
7747;SDS011;3918;42.564;23.164;2023-02-11T07:05:58;11.43;;;6.45;;
7747;SDS011;3918;42.564;23.164;2023-02-11T07:08:25;9.07;;;6.32;;
7747;SDS011;3918;42.564;23.164;2023-02-11T07:10:52;10.65;;;6.93;;
7747;SDS011;3918;42.564;23.164;2023-02-11T07:13:19;12.38;;;6.60;;
7747;SDS011;3918;42.564;23.164;2023-02-11T07:15:47;9.85;;;6.38;;
7747;SDS011;3918;42.564;23.164;2023-02-11T07:18:14;11.65;;;7.20;;
7747;SDS011;3918;42.564;23.164;2023-02-11T07:20:40;13.48;;;6.63;;
7747;SDS011;3918;42.564;23.164;2023-02-11T07:23:07;9.80;;;6.65;;
7747;SDS011;3918;42.564;23.164;2023-02-11T07:25:34;11.05;;;7.53;;
7747;SDS011;3918;42.564;23.164;2023-02-11T07:28:02;11.77;;;7.85;;
7747;SDS011;3918;42.564;23.164;2023-02-11T07:30:29;12.70;;;7.80;;
7747;SDS011;3918;42.564;23.164;2023-02-11T07:32:57;13.80;;;8.00;;
7747;SDS011;3918;42.564;23.164;2023-02-11T07:35:24;13.95;;;9.30;;
7747;SDS011;3918;42.564;23.164;2023-02-11T07:37:51;15.02;;;7.95;;
7747;SDS011;3918;42.564;23.164;2023-02-11T07:40:17;10.35;;;6.57;;
7747;SDS011;3918;42.564;23.164;2023-02-11T07:42:44;10.73;;;7.47;;
7747;SDS011;3918;42.564;23.164;2023-02-11T07:45:11;10.05;;;7.47;;
7747;SDS011;3918;42.564;23.164;2023-02-11T07:47:38;11.70;;;7.38;;
7747;SDS011;3918;42.564;23.164;2023-02-11T07:50:08;10.13;;;7.28;;
7747;SDS011;3918;42.564;23.164;2023-02-11T07:52:35;11.02;;;7.45;;
7747;SDS011;3918;42.564;23.164;2023-02-11T07:55:01;15.13;;;8.40;;
7747;SDS011;3918;42.564;23.164;2023-02-11T07:57:28;14.57;;;9.02;;
7747;SDS011;3918;42.564;23.164;2023-02-11T07:59:55;14.48;;;8.73;;
7747;SDS011;3918;42.564;23.164;2023-02-11T08:02:23;15.48;;;8.52;;
7747;SDS011;3918;42.564;23.164;2023-02-11T08:04:50;12.70;;;8.52;;
7747;SDS011;3918;42.564;23.164;2023-02-11T08:07:18;13.13;;;8.63;;
7747;SDS011;3918;42.564;23.164;2023-02-11T08:09:45;13.68;;;7.95;;
7747;SDS011;3918;42.564;23.164;2023-02-11T08:12:12;15.95;;;9.40;;
7747;SDS011;3918;42.564;23.164;2023-02-11T08:14:38;13.15;;;9.02;;
7747;SDS011;3918;42.564;23.164;2023-02-11T08:17:05;13.10;;;8.85;;
7747;SDS011;3918;42.564;23.164;2023-02-11T08:19:32;15.88;;;9.40;;
7747;SDS011;3918;42.564;23.164;2023-02-11T08:21:59;19.48;;;9.95;;
7747;SDS011;3918;42.564;23.164;2023-02-11T08:24:27;19.23;;;9.55;;
7747;SDS011;3918;42.564;23.164;2023-02-11T08:26:54;16.40;;;9.75;;
7747;SDS011;3918;42.564;23.164;2023-02-11T08:29:21;17.52;;;9.52;;
7747;SDS011;3918;42.564;23.164;2023-02-11T08:31:48;19.35;;;9.18;;
7747;SDS011;3918;42.564;23.164;2023-02-11T08:34:15;19.38;;;9.43;;
7747;SDS011;3918;42.564;23.164;2023-02-11T08:36:44;20.35;;;10.18;;
7747;SDS011;3918;42.564;23.164;2023-02-11T08:39:13;24.50;;;11.32;;
7747;SDS011;3918;42.564;23.164;2023-02-11T08:41:43;20.60;;;10.65;;
7747;SDS011;3918;42.564;23.164;2023-02-11T08:44:10;21.73;;;10.18;;
7747;SDS011;3918;42.564;23.164;2023-02-11T08:46:37;19.05;;;10.80;;
7747;SDS011;3918;42.564;23.164;2023-02-11T08:49:04;18.35;;;9.75;;
7747;SDS011;3918;42.564;23.164;2023-02-11T08:51:31;14.98;;;8.63;;
7747;SDS011;3918;42.564;23.164;2023-02-11T08:53:58;18.33;;;9.00;;
7747;SDS011;3918;42.564;23.164;2023-02-11T08:56:25;16.88;;;8.55;;
7747;SDS011;3918;42.564;23.164;2023-02-11T08:58:53;23.50;;;10.40;;
7747;SDS011;3918;42.564;23.164;2023-02-11T09:01:21;20.33;;;10.60;;
7747;SDS011;3918;42.564;23.164;2023-02-11T09:03:50;23.42;;;11.38;;
7747;SDS011;3918;42.564;23.164;2023-02-11T09:06:17;25.60;;;12.23;;
7747;SDS011;3918;42.564;23.164;2023-02-11T09:08:45;23.92;;;11.98;;
7747;SDS011;3918;42.564;23.164;2023-02-11T09:11:14;26.70;;;12.70;;
7747;SDS011;3918;42.564;23.164;2023-02-11T09:13:42;21.33;;;11.35;;
7747;SDS011;3918;42.564;23.164;2023-02-11T09:16:16;23.73;;;10.50;;
7747;SDS011;3918;42.564;23.164;2023-02-11T09:18:44;28.05;;;9.93;;
7747;SDS011;3918;42.564;23.164;2023-02-11T09:21:11;21.60;;;10.07;;
7747;SDS011;3918;42.564;23.164;2023-02-11T09:23:39;21.05;;;10.38;;
7747;SDS011;3918;42.564;23.164;2023-02-11T09:26:08;22.55;;;9.50;;
7747;SDS011;3918;42.564;23.164;2023-02-11T09:28:37;24.90;;;8.95;;
7747;SDS011;3918;42.564;23.164;2023-02-11T09:31:05;21.95;;;10.23;;
7747;SDS011;3918;42.564;23.164;2023-02-11T09:33:33;25.80;;;9.27;;
7747;SDS011;3918;42.564;23.164;2023-02-11T09:36:00;19.35;;;8.70;;
7747;SDS011;3918;42.564;23.164;2023-02-11T09:38:27;21.95;;;9.05;;
7747;SDS011;3918;42.564;23.164;2023-02-11T09:40:54;18.60;;;9.23;;
7747;SDS011;3918;42.564;23.164;2023-02-11T09:43:32;19.52;;;8.88;;
7747;SDS011;3918;42.564;23.164;2023-02-11T09:46:04;18.50;;;8.18;;
7747;SDS011;3918;42.564;23.164;2023-02-11T09:48:34;19.25;;;8.07;;
7747;SDS011;3918;42.564;23.164;2023-02-11T09:51:10;14.80;;;7.50;;
7747;SDS011;3918;42.564;23.164;2023-02-11T09:53:44;14.27;;;7.72;;
7747;SDS011;3918;42.564;23.164;2023-02-11T09:56:15;15.32;;;7.05;;
7747;SDS011;3918;42.564;23.164;2023-02-11T09:58:42;17.42;;;7.53;;
7747;SDS011;3918;42.564;23.164;2023-02-11T10:01:12;11.20;;;6.47;;
7747;SDS011;3918;42.564;23.164;2023-02-11T10:06:40;13.10;;;6.47;;
7747;SDS011;3918;42.564;23.164;2023-02-11T10:09:15;16.42;;;6.82;;
7747;SDS011;3918;42.564;23.164;2023-02-11T10:11:51;14.88;;;7.63;;
7747;SDS011;3918;42.564;23.164;2023-02-11T10:14:40;18.70;;;8.25;;
7747;SDS011;3918;42.564;23.164;2023-02-11T10:17:18;16.17;;;6.88;;
7747;SDS011;3918;42.564;23.164;2023-02-11T10:20:01;17.77;;;7.53;;
7747;SDS011;3918;42.564;23.164;2023-02-11T10:22:40;23.08;;;8.50;;
7747;SDS011;3918;42.564;23.164;2023-02-11T10:25:16;12.93;;;6.95;;
7747;SDS011;3918;42.564;23.164;2023-02-11T10:27:46;13.65;;;7.50;;
7747;SDS011;3918;42.564;23.164;2023-02-11T10:30:17;15.40;;;6.68;;
7747;SDS011;3918;42.564;23.164;2023-02-11T10:32:50;13.70;;;7.13;;
7747;SDS011;3918;42.564;23.164;2023-02-11T10:35:22;17.67;;;6.87;;
7747;SDS011;3918;42.564;23.164;2023-02-11T10:37:51;14.90;;;7.15;;
7747;SDS011;3918;42.564;23.164;2023-02-11T10:40:19;14.63;;;6.63;;
7747;SDS011;3918;42.564;23.164;2023-02-11T10:42:48;16.02;;;6.25;;
7747;SDS011;3918;42.564;23.164;2023-02-11T10:45:18;14.10;;;6.30;;
7747;SDS011;3918;42.564;23.164;2023-02-11T10:47:50;15.25;;;6.28;;
7747;SDS011;3918;42.564;23.164;2023-02-11T10:50:19;14.27;;;6.20;;
7747;SDS011;3918;42.564;23.164;2023-02-11T10:52:51;20.05;;;6.45;;
7747;SDS011;3918;42.564;23.164;2023-02-11T10:55:19;13.43;;;6.40;;
7747;SDS011;3918;42.564;23.164;2023-02-11T10:57:50;13.98;;;6.43;;
7747;SDS011;3918;42.564;23.164;2023-02-11T11:00:33;12.13;;;5.70;;
7747;SDS011;3918;42.564;23.164;2023-02-11T11:03:04;13.00;;;5.88;;
7747;SDS011;3918;42.564;23.164;2023-02-11T11:05:45;13.15;;;5.57;;
7747;SDS011;3918;42.564;23.164;2023-02-11T11:08:13;13.40;;;5.63;;
7747;SDS011;3918;42.564;23.164;2023-02-11T11:10:42;12.73;;;6.30;;
7747;SDS011;3918;42.564;23.164;2023-02-11T11:13:24;11.43;;;5.20;;
7747;SDS011;3918;42.564;23.164;2023-02-11T11:16:06;9.33;;;4.77;;
7747;SDS011;3918;42.564;23.164;2023-02-11T11:18:44;11.52;;;4.88;;
7747;SDS011;3918;42.564;23.164;2023-02-11T11:21:15;9.05;;;4.78;;
7747;SDS011;3918;42.564;23.164;2023-02-11T11:23:46;7.82;;;4.68;;
7747;SDS011;3918;42.564;23.164;2023-02-11T11:26:15;8.70;;;4.38;;
7747;SDS011;3918;42.564;23.164;2023-02-11T11:28:50;11.10;;;5.35;;
7747;SDS011;3918;42.564;23.164;2023-02-11T11:31:23;12.77;;;5.80;;
7747;SDS011;3918;42.564;23.164;2023-02-11T11:33:52;12.20;;;5.37;;
7747;SDS011;3918;42.564;23.164;2023-02-11T11:36:24;10.63;;;5.50;;
7747;SDS011;3918;42.564;23.164;2023-02-11T11:38:59;9.68;;;4.65;;
7747;SDS011;3918;42.564;23.164;2023-02-11T11:41:29;11.90;;;5.03;;
7747;SDS011;3918;42.564;23.164;2023-02-11T11:44:01;10.83;;;5.17;;
7747;SDS011;3918;42.564;23.164;2023-02-11T11:46:31;8.20;;;4.67;;
7747;SDS011;3918;42.564;23.164;2023-02-11T11:49:03;9.75;;;4.70;;
7747;SDS011;3918;42.564;23.164;2023-02-11T11:51:42;11.60;;;5.30;;
7747;SDS011;3918;42.564;23.164;2023-02-11T11:54:16;7.82;;;4.43;;
7747;SDS011;3918;42.564;23.164;2023-02-11T11:56:48;11.60;;;4.68;;
7747;SDS011;3918;42.564;23.164;2023-02-11T11:59:18;10.87;;;5.10;;
7747;SDS011;3918;42.564;23.164;2023-02-11T12:01:50;10.20;;;4.10;;
7747;SDS011;3918;42.564;23.164;2023-02-11T12:04:35;11.90;;;4.80;;
7747;SDS011;3918;42.564;23.164;2023-02-11T12:07:24;13.15;;;4.28;;
7747;SDS011;3918;42.564;23.164;2023-02-11T12:12:56;7.53;;;4.18;;
7747;SDS011;3918;42.564;23.164;2023-02-11T12:15:33;10.77;;;4.03;;
7747;SDS011;3918;42.564;23.164;2023-02-11T12:18:15;8.52;;;4.32;;
7747;SDS011;3918;42.564;23.164;2023-02-11T12:20:54;8.10;;;3.97;;
7747;SDS011;3918;42.564;23.164;2023-02-11T12:23:40;9.75;;;4.25;;
7747;SDS011;3918;42.564;23.164;2023-02-11T12:26:17;13.35;;;4.15;;
7747;SDS011;3918;42.564;23.164;2023-02-11T12:28:53;6.10;;;3.35;;
7747;SDS011;3918;42.564;23.164;2023-02-11T12:31:34;7.85;;;3.78;;
7747;SDS011;3918;42.564;23.164;2023-02-11T12:34:17;8.63;;;4.00;;
7747;SDS011;3918;42.564;23.164;2023-02-11T12:36:58;4.97;;;3.30;;
7747;SDS011;3918;42.564;23.164;2023-02-11T12:39:36;7.13;;;3.28;;
7747;SDS011;3918;42.564;23.164;2023-02-11T12:42:18;4.97;;;3.42;;
7747;SDS011;3918;42.564;23.164;2023-02-11T12:45:21;6.20;;;3.42;;
7747;SDS011;3918;42.564;23.164;2023-02-11T12:48:02;4.65;;;3.22;;
7747;SDS011;3918;42.564;23.164;2023-02-11T12:50:40;6.15;;;3.28;;
7747;SDS011;3918;42.564;23.164;2023-02-11T12:53:22;8.13;;;3.10;;
7747;SDS011;3918;42.564;23.164;2023-02-11T12:56:00;7.85;;;3.22;;
7747;SDS011;3918;42.564;23.164;2023-02-11T12:58:32;6.35;;;3.42;;
7747;SDS011;3918;42.564;23.164;2023-02-11T13:01:02;8.32;;;3.97;;
7747;SDS011;3918;42.564;23.164;2023-02-11T13:03:34;7.20;;;3.03;;
7747;SDS011;3918;42.564;23.164;2023-02-11T13:06:06;7.32;;;3.75;;
7747;SDS011;3918;42.564;23.164;2023-02-11T13:08:36;5.97;;;3.13;;
7747;SDS011;3918;42.564;23.164;2023-02-11T13:11:08;6.07;;;3.33;;
7747;SDS011;3918;42.564;23.164;2023-02-11T13:13:45;4.70;;;2.72;;
7747;SDS011;3918;42.564;23.164;2023-02-11T13:16:17;5.68;;;3.13;;
7747;SDS011;3918;42.564;23.164;2023-02-11T13:18:51;5.43;;;2.80;;
7747;SDS011;3918;42.564;23.164;2023-02-11T13:21:28;5.30;;;3.00;;
7747;SDS011;3918;42.564;23.164;2023-02-11T13:24:06;5.20;;;2.60;;
7747;SDS011;3918;42.564;23.164;2023-02-11T13:26:41;4.90;;;2.60;;
7747;SDS011;3918;42.564;23.164;2023-02-11T13:29:20;6.90;;;2.78;;
7747;SDS011;3918;42.564;23.164;2023-02-11T13:31:55;6.53;;;3.15;;
7747;SDS011;3918;42.564;23.164;2023-02-11T13:37:23;7.90;;;2.63;;
7747;SDS011;3918;42.564;23.164;2023-02-11T13:39:56;8.13;;;3.17;;
7747;SDS011;3918;42.564;23.164;2023-02-11T13:42:26;5.03;;;3.43;;
7747;SDS011;3918;42.564;23.164;2023-02-11T13:44:53;6.57;;;3.63;;
7747;SDS011;3918;42.564;23.164;2023-02-11T13:47:25;5.23;;;3.10;;
7747;SDS011;3918;42.564;23.164;2023-02-11T13:49:55;5.00;;;3.57;;
7747;SDS011;3918;42.564;23.164;2023-02-11T13:52:24;6.18;;;3.95;;
7747;SDS011;3918;42.564;23.164;2023-02-11T13:54:53;7.03;;;3.83;;
7747;SDS011;3918;42.564;23.164;2023-02-11T13:57:34;7.10;;;3.30;;
7747;SDS011;3918;42.564;23.164;2023-02-11T14:00:08;6.17;;;3.40;;
7747;SDS011;3918;42.564;23.164;2023-02-11T14:03:27;6.80;;;2.97;;
7747;SDS011;3918;42.564;23.164;2023-02-11T14:06:23;5.33;;;3.70;;
7747;SDS011;3918;42.564;23.164;2023-02-11T14:14:58;6.30;;;3.50;;
7747;SDS011;3918;42.564;23.164;2023-02-11T14:17:28;9.77;;;3.87;;
7747;SDS011;3918;42.564;23.164;2023-02-11T14:19:56;6.07;;;3.50;;
7747;SDS011;3918;42.564;23.164;2023-02-11T14:22:26;4.47;;;3.17;;
7747;SDS011;3918;42.564;23.164;2023-02-11T14:24:56;7.10;;;3.37;;
7747;SDS011;3918;42.564;23.164;2023-02-11T14:27:35;6.77;;;3.87;;
7747;SDS011;3918;42.564;23.164;2023-02-11T14:30:17;7.57;;;3.97;;
7747;SDS011;3918;42.564;23.164;2023-02-11T14:35:54;3.57;;;2.67;;
7747;SDS011;3918;42.564;23.164;2023-02-11T14:38:30;5.93;;;3.47;;
7747;SDS011;3918;42.564;23.164;2023-02-11T14:41:07;6.30;;;3.43;;
7747;SDS011;3918;42.564;23.164;2023-02-11T14:43:43;4.97;;;2.77;;
7747;SDS011;3918;42.564;23.164;2023-02-11T14:46:15;4.43;;;3.10;;
7747;SDS011;3918;42.564;23.164;2023-02-11T14:48:44;5.73;;;3.60;;
7747;SDS011;3918;42.564;23.164;2023-02-11T14:51:14;5.03;;;1.60;;
7747;SDS011;3918;42.564;23.164;2023-02-11T14:53:45;3.17;;;2.13;;
7747;SDS011;3918;42.564;23.164;2023-02-11T14:56:18;4.97;;;2.43;;
7747;SDS011;3918;42.564;23.164;2023-02-11T14:58:48;3.57;;;1.67;;
7747;SDS011;3918;42.564;23.164;2023-02-11T15:01:23;3.93;;;2.87;;
7747;SDS011;3918;42.564;23.164;2023-02-11T15:03:53;6.53;;;3.60;;
7747;SDS011;3918;42.564;23.164;2023-02-11T15:06:21;5.90;;;3.37;;
7747;SDS011;3918;42.564;23.164;2023-02-11T15:08:50;8.10;;;3.20;;
7747;SDS011;3918;42.564;23.164;2023-02-11T15:11:19;4.73;;;3.13;;
7747;SDS011;3918;42.564;23.164;2023-02-11T15:13:47;5.20;;;3.10;;
7747;SDS011;3918;42.564;23.164;2023-02-11T15:16:16;3.73;;;2.80;;
7747;SDS011;3918;42.564;23.164;2023-02-11T15:18:49;4.40;;;2.47;;
7747;SDS011;3918;42.564;23.164;2023-02-11T15:21:22;4.13;;;2.80;;
7747;SDS011;3918;42.564;23.164;2023-02-11T15:23:55;3.83;;;2.70;;
7747;SDS011;3918;42.564;23.164;2023-02-11T15:26:23;4.80;;;2.70;;
7747;SDS011;3918;42.564;23.164;2023-02-11T15:28:49;5.83;;;3.13;;
7747;SDS011;3918;42.564;23.164;2023-02-11T15:31:18;5.83;;;3.30;;
7747;SDS011;3918;42.564;23.164;2023-02-11T15:33:48;4.87;;;3.10;;
7747;SDS011;3918;42.564;23.164;2023-02-11T15:36:16;6.43;;;3.57;;
7747;SDS011;3918;42.564;23.164;2023-02-11T15:38:44;7.90;;;3.80;;